sensor_id;sensor_type;location;lat;lon;timestamp;pressure;altitude;pressure_sealevel;temperature;humidity
51333;BME280;37417;48.118;11.734;2023-06-19T00:01:27;95152.16;;;18.28;77.38
51333;BME280;37417;48.118;11.734;2023-06-19T00:04:13;95149.28;;;18.30;77.78
51333;BME280;37417;48.118;11.734;2023-06-19T00:07:03;95145.28;;;18.27;77.78
51333;BME280;37417;48.118;11.734;2023-06-19T00:09:49;95134.69;;;18.22;77.88
51333;BME280;37417;48.118;11.734;2023-06-19T00:12:36;95133.66;;;18.23;77.44
51333;BME280;37417;48.118;11.734;2023-06-19T00:15:21;95129.28;;;18.07;78.65
51333;BME280;37417;48.118;11.734;2023-06-19T00:18:07;95138.25;;;18.06;79.04
51333;BME280;37417;48.118;11.734;2023-06-19T00:20:53;95139.81;;;18.07;78.59
51333;BME280;37417;48.118;11.734;2023-06-19T00:23:41;95144.72;;;17.93;79.39
51333;BME280;37417;48.118;11.734;2023-06-19T00:26:27;95139.78;;;18.02;79.76
51333;BME280;37417;48.118;11.734;2023-06-19T00:29:12;95135.06;;;18.04;79.93
51333;BME280;37417;48.118;11.734;2023-06-19T00:31:59;95134.56;;;18.07;80.33
51333;BME280;37417;48.118;11.734;2023-06-19T00:34:45;95134.28;;;18.03;80.47
51333;BME280;37417;48.118;11.734;2023-06-19T00:37:30;95134.94;;;17.94;81.67
51333;BME280;37417;48.118;11.734;2023-06-19T00:40:29;95126.09;;;18.05;80.83
51333;BME280;37417;48.118;11.734;2023-06-19T00:43:15;95136.66;;;18.05;81.02
51333;BME280;37417;48.118;11.734;2023-06-19T00:46:01;95130.53;;;17.99;81.58
51333;BME280;37417;48.118;11.734;2023-06-19T00:48:47;95132.44;;;17.82;82.58
51333;BME280;37417;48.118;11.734;2023-06-19T00:51:32;95140.09;;;17.83;82.80
51333;BME280;37417;48.118;11.734;2023-06-19T00:54:19;95133.38;;;17.93;82.29
51333;BME280;37417;48.118;11.734;2023-06-19T00:57:05;95136.78;;;17.93;82.25
51333;BME280;37417;48.118;11.734;2023-06-19T00:59:51;95145.19;;;17.90;82.50
51333;BME280;37417;48.118;11.734;2023-06-19T01:02:39;95135.94;;;17.88;82.74
51333;BME280;37417;48.118;11.734;2023-06-19T01:05:25;95141.13;;;18.04;82.18
51333;BME280;37417;48.118;11.734;2023-06-19T01:08:13;95144.81;;;18.03;82.49
51333;BME280;37417;48.118;11.734;2023-06-19T01:11:00;95147.25;;;18.10;81.85
51333;BME280;37417;48.118;11.734;2023-06-19T01:13:50;95148.78;;;18.06;82.33
51333;BME280;37417;48.118;11.734;2023-06-19T01:16:39;95140.22;;;17.94;83.14
51333;BME280;37417;48.118;11.734;2023-06-19T01:19:25;95153.16;;;17.95;83.23
51333;BME280;37417;48.118;11.734;2023-06-19T01:22:23;95147.81;;;17.85;84.36
51333;BME280;37417;48.118;11.734;2023-06-19T01:25:08;95144.91;;;17.86;84.43
51333;BME280;37417;48.118;11.734;2023-06-19T01:27:54;95141.94;;;18.05;83.92
51333;BME280;37417;48.118;11.734;2023-06-19T01:30:41;95136.41;;;18.06;83.81
51333;BME280;37417;48.118;11.734;2023-06-19T01:33:29;95147.50;;;18.08;83.72
51333;BME280;37417;48.118;11.734;2023-06-19T01:36:17;95148.78;;;18.06;83.83
51333;BME280;37417;48.118;11.734;2023-06-19T01:39:05;95153.47;;;17.99;84.79
51333;BME280;37417;48.118;11.734;2023-06-19T01:41:51;95155.66;;;18.07;84.68
51333;BME280;37417;48.118;11.734;2023-06-19T01:44:38;95154.06;;;18.06;84.63
51333;BME280;37417;48.118;11.734;2023-06-19T01:47:23;95151.28;;;18.18;84.11
51333;BME280;37417;48.118;11.734;2023-06-19T01:50:10;95153.81;;;18.34;83.15
51333;BME280;37417;48.118;11.734;2023-06-19T01:52:56;95153.94;;;18.50;82.43
51333;BME280;37417;48.118;11.734;2023-06-19T01:55:41;95157.50;;;18.33;82.71
51333;BME280;37417;48.118;11.734;2023-06-19T01:58:27;95153.78;;;18.29;83.29
51333;BME280;37417;48.118;11.734;2023-06-19T02:01:13;95152.88;;;18.19;83.85
51333;BME280;37417;48.118;11.734;2023-06-19T02:03:59;95150.69;;;18.10;84.64
51333;BME280;37417;48.118;11.734;2023-06-19T02:06:44;95158.03;;;18.08;85.13
51333;BME280;37417;48.118;11.734;2023-06-19T02:09:31;95155.66;;;18.07;85.12
51333;BME280;37417;48.118;11.734;2023-06-19T02:12:16;95145.59;;;18.31;84.04
51333;BME280;37417;48.118;11.734;2023-06-19T02:15:02;95140.94;;;18.11;84.98
51333;BME280;37417;48.118;11.734;2023-06-19T02:17:48;95146.56;;;18.20;84.87
51333;BME280;37417;48.118;11.734;2023-06-19T02:20:34;95147.66;;;18.24;84.46
51333;BME280;37417;48.118;11.734;2023-06-19T02:23:20;95150.53;;;18.22;84.85
51333;BME280;37417;48.118;11.734;2023-06-19T02:26:05;95149.19;;;18.20;84.98
51333;BME280;37417;48.118;11.734;2023-06-19T02:28:51;95145.19;;;18.44;84.25
51333;BME280;37417;48.118;11.734;2023-06-19T02:31:36;95153.38;;;18.48;83.50
51333;BME280;37417;48.118;11.734;2023-06-19T02:34:22;95143.81;;;18.41;83.83
51333;BME280;37417;48.118;11.734;2023-06-19T02:37:09;95147.44;;;18.30;84.39
51333;BME280;37417;48.118;11.734;2023-06-19T02:39:55;95145.59;;;18.31;84.23
51333;BME280;37417;48.118;11.734;2023-06-19T02:42:40;95146.81;;;18.18;85.11
51333;BME280;37417;48.118;11.734;2023-06-19T02:45:26;95151.50;;;18.11;85.43
51333;BME280;37417;48.118;11.734;2023-06-19T02:48:12;95151.28;;;18.18;85.71
51333;BME280;37417;48.118;11.734;2023-06-19T02:50:57;95153.28;;;18.05;86.32
51333;BME280;37417;48.118;11.734;2023-06-19T02:53:43;95158.03;;;18.08;86.89
51333;BME280;37417;48.118;11.734;2023-06-19T02:56:29;95157.84;;;18.15;86.91
51333;BME280;37417;48.118;11.734;2023-06-19T02:59:14;95159.84;;;18.03;87.36
51333;BME280;37417;48.118;11.734;2023-06-19T03:02:00;95162.13;;;17.94;88.34
51333;BME280;37417;48.118;11.734;2023-06-19T03:04:46;95161.25;;;18.10;87.88
51333;BME280;37417;48.118;11.734;2023-06-19T03:07:31;95160.00;;;17.91;88.61
51333;BME280;37417;48.118;11.734;2023-06-19T03:10:17;95164.50;;;17.91;89.58
51333;BME280;37417;48.118;11.734;2023-06-19T03:13:03;95158.91;;;18.14;89.27
51333;BME280;37417;48.118;11.734;2023-06-19T03:15:49;95152.53;;;18.10;90.22
51333;BME280;37417;48.118;11.734;2023-06-19T03:18:34;95151.38;;;18.01;92.61
51333;BME280;37417;48.118;11.734;2023-06-19T03:21:20;95149.28;;;18.03;92.35
51333;BME280;37417;48.118;11.734;2023-06-19T03:24:07;95157.16;;;17.98;92.51
51333;BME280;37417;48.118;11.734;2023-06-19T03:26:52;95171.34;;;17.92;93.12
51333;BME280;37417;48.118;11.734;2023-06-19T03:29:38;95172.59;;;17.84;93.96
51333;BME280;37417;48.118;11.734;2023-06-19T03:32:24;95169.63;;;17.80;93.37
51333;BME280;37417;48.118;11.734;2023-06-19T03:35:09;95172.56;;;18.06;92.21
51333;BME280;37417;48.118;11.734;2023-06-19T03:37:55;95189.97;;;18.07;92.00
51333;BME280;37417;48.118;11.734;2023-06-19T03:40:41;95186.66;;;18.17;91.17
51333;BME280;37417;48.118;11.734;2023-06-19T03:43:27;95187.13;;;18.13;91.40
51333;BME280;37417;48.118;11.734;2023-06-19T03:46:12;95184.78;;;18.44;89.85
51333;BME280;37417;48.118;11.734;2023-06-19T03:48:58;95183.63;;;18.35;89.74
51333;BME280;37417;48.118;11.734;2023-06-19T03:51:44;95191.81;;;18.33;89.91
51333;BME280;37417;48.118;11.734;2023-06-19T03:54:29;95206.22;;;18.48;89.18
51333;BME280;37417;48.118;11.734;2023-06-19T03:57:15;95209.47;;;18.55;88.57
51333;BME280;37417;48.118;11.734;2023-06-19T04:00:01;95210.50;;;18.54;88.88
51333;BME280;37417;48.118;11.734;2023-06-19T04:02:46;95208.03;;;18.69;88.53
51333;BME280;37417;48.118;11.734;2023-06-19T04:05:32;95211.13;;;18.66;88.11
51333;BME280;37417;48.118;11.734;2023-06-19T04:08:18;95206.97;;;18.70;88.06
51333;BME280;37417;48.118;11.734;2023-06-19T04:11:03;95214.91;;;18.70;88.37
51333;BME280;37417;48.118;11.734;2023-06-19T04:13:49;95220.66;;;18.67;88.61
51333;BME280;37417;48.118;11.734;2023-06-19T04:16:35;95221.16;;;18.64;89.04
51333;BME280;37417;48.118;11.734;2023-06-19T04:19:20;95225.34;;;18.60;89.13
51333;BME280;37417;48.118;11.734;2023-06-19T04:22:06;95231.09;;;18.52;90.12
51333;BME280;37417;48.118;11.734;2023-06-19T04:24:51;95230.78;;;18.48;90.39
51333;BME280;37417;48.118;11.734;2023-06-19T04:27:37;95231.47;;;18.65;90.55
51333;BME280;37417;48.118;11.734;2023-06-19T04:30:23;95236.47;;;18.62;89.82
51333;BME280;37417;48.118;11.734;2023-06-19T04:33:08;95243.03;;;18.59;90.43
51333;BME280;37417;48.118;11.734;2023-06-19T04:35:55;95238.53;;;18.60;91.16
51333;BME280;37417;48.118;11.734;2023-06-19T04:38:41;95245.63;;;18.54;92.32
51333;BME280;37417;48.118;11.734;2023-06-19T04:41:27;95242.66;;;18.46;93.28
51333;BME280;37417;48.118;11.734;2023-06-19T04:44:12;95251.22;;;18.09;97.32
51333;BME280;37417;48.118;11.734;2023-06-19T04:46:58;95248.84;;;17.85;98.85
51333;BME280;37417;48.118;11.734;2023-06-19T04:49:46;95255.91;;;17.80;100.00
51333;BME280;37417;48.118;11.734;2023-06-19T04:52:32;95249.03;;;18.01;100.00
51333;BME280;37417;48.118;11.734;2023-06-19T04:55:18;95256.88;;;18.18;100.00
51333;BME280;37417;48.118;11.734;2023-06-19T04:58:04;95263.03;;;18.23;100.00
51333;BME280;37417;48.118;11.734;2023-06-19T05:00:50;95270.97;;;18.28;100.00
51333;BME280;37417;48.118;11.734;2023-06-19T05:03:36;95274.41;;;18.29;100.00
51333;BME280;37417;48.118;11.734;2023-06-19T05:06:25;95288.66;;;18.28;100.00
51333;BME280;37417;48.118;11.734;2023-06-19T05:09:11;95294.13;;;18.21;100.00
51333;BME280;37417;48.118;11.734;2023-06-19T05:11:57;95286.28;;;18.26;100.00
51333;BME280;37417;48.118;11.734;2023-06-19T05:14:42;95290.69;;;18.43;100.00
51333;BME280;37417;48.118;11.734;2023-06-19T05:17:28;95295.44;;;18.67;100.00
51333;BME280;37417;48.118;11.734;2023-06-19T05:20:14;95305.31;;;18.77;100.00
51333;BME280;37417;48.118;11.734;2023-06-19T05:23:00;95310.53;;;19.26;100.00
51333;BME280;37417;48.118;11.734;2023-06-19T05:25:45;95310.72;;;19.52;100.00
51333;BME280;37417;48.118;11.734;2023-06-19T05:28:31;95308.66;;;19.59;100.00
51333;BME280;37417;48.118;11.734;2023-06-19T05:31:17;95311.16;;;19.81;99.04
51333;BME280;37417;48.118;11.734;2023-06-19T05:34:03;95299.91;;;20.06;94.08
51333;BME280;37417;48.118;11.734;2023-06-19T05:36:49;95310.56;;;20.16;92.19
51333;BME280;37417;48.118;11.734;2023-06-19T05:39:35;95314.06;;;20.32;89.83
51333;BME280;37417;48.118;11.734;2023-06-19T05:42:20;95324.41;;;20.38;85.90
51333;BME280;37417;48.118;11.734;2023-06-19T05:45:07;95324.94;;;20.35;86.22
51333;BME280;37417;48.118;11.734;2023-06-19T05:47:52;95326.84;;;20.45;84.44
51333;BME280;37417;48.118;11.734;2023-06-19T05:50:38;95325.03;;;20.61;82.74
51333;BME280;37417;48.118;11.734;2023-06-19T05:53:24;95329.31;;;20.77;81.00
51333;BME280;37417;48.118;11.734;2023-06-19T05:56:09;95335.66;;;20.71;82.05
51333;BME280;37417;48.118;11.734;2023-06-19T05:58:55;95333.78;;;20.66;82.57
51333;BME280;37417;48.118;11.734;2023-06-19T06:01:41;95332.50;;;20.69;81.93
51333;BME280;37417;48.118;11.734;2023-06-19T06:04:26;95336.69;;;20.60;82.75
51333;BME280;37417;48.118;11.734;2023-06-19T06:07:12;95347.00;;;20.51;83.61
51333;BME280;37417;48.118;11.734;2023-06-19T06:09:59;95350.16;;;20.48;85.21
51333;BME280;37417;48.118;11.734;2023-06-19T06:12:44;95344.63;;;20.60;85.28
51333;BME280;37417;48.118;11.734;2023-06-19T06:15:30;95340.94;;;20.61;85.51
51333;BME280;37417;48.118;11.734;2023-06-19T06:18:15;95336.19;;;20.73;84.83
51333;BME280;37417;48.118;11.734;2023-06-19T06:21:01;95342.84;;;20.75;85.48
51333;BME280;37417;48.118;11.734;2023-06-19T06:23:47;95344.19;;;20.83;84.10
51333;BME280;37417;48.118;11.734;2023-06-19T06:26:33;95348.72;;;20.98;83.84
51333;BME280;37417;48.118;11.734;2023-06-19T06:29:18;95344.19;;;20.98;83.09
51333;BME280;37417;48.118;11.734;2023-06-19T06:32:05;95356.13;;;20.96;84.15
51333;BME280;37417;48.118;11.734;2023-06-19T06:34:51;95354.31;;;21.06;83.44
51333;BME280;37417;48.118;11.734;2023-06-19T06:37:37;95367.28;;;21.18;81.96
51333;BME280;37417;48.118;11.734;2023-06-19T06:40:23;95370.75;;;21.14;82.03
51333;BME280;37417;48.118;11.734;2023-06-19T06:43:08;95365.72;;;21.27;81.11
51333;BME280;37417;48.118;11.734;2023-06-19T06:45:54;95367.63;;;21.42;81.05
51333;BME280;37417;48.118;11.734;2023-06-19T06:48:40;95368.94;;;21.60;80.99
51333;BME280;37417;48.118;11.734;2023-06-19T06:51:25;95365.19;;;21.92;79.88
51333;BME280;37417;48.118;11.734;2023-06-19T06:54:11;95377.69;;;21.86;80.02
51333;BME280;37417;48.118;11.734;2023-06-19T06:56:57;95387.25;;;21.72;81.30
51333;BME280;37417;48.118;11.734;2023-06-19T06:59:43;95388.81;;;21.93;81.82
51333;BME280;37417;48.118;11.734;2023-06-19T07:02:29;95385.09;;;21.94;81.49
51333;BME280;37417;48.118;11.734;2023-06-19T07:05:15;95391.22;;;21.95;80.69
51333;BME280;37417;48.118;11.734;2023-06-19T07:08:00;95386.41;;;22.22;80.21
51333;BME280;37417;48.118;11.734;2023-06-19T07:10:46;95390.59;;;22.49;78.77
51333;BME280;37417;48.118;11.734;2023-06-19T07:13:32;95400.25;;;22.84;76.55
51333;BME280;37417;48.118;11.734;2023-06-19T07:16:17;95403.81;;;22.69;76.96
51333;BME280;37417;48.118;11.734;2023-06-19T07:19:03;95400.28;;;22.79;77.08
51333;BME280;37417;48.118;11.734;2023-06-19T07:21:49;95394.53;;;23.55;72.77
51333;BME280;37417;48.118;11.734;2023-06-19T07:24:36;95397.16;;;23.60;72.72
51333;BME280;37417;48.118;11.734;2023-06-19T07:27:21;95398.75;;;23.22;73.13
51333;BME280;37417;48.118;11.734;2023-06-19T07:30:08;95402.28;;;23.12;73.49
51333;BME280;37417;48.118;11.734;2023-06-19T07:32:53;95398.75;;;23.22;75.17
51333;BME280;37417;48.118;11.734;2023-06-19T07:35:39;95405.94;;;23.21;74.39
51333;BME280;37417;48.118;11.734;2023-06-19T07:38:25;95402.34;;;23.41;73.35
51333;BME280;37417;48.118;11.734;2023-06-19T07:41:10;95401.38;;;23.71;73.11
51333;BME280;37417;48.118;11.734;2023-06-19T07:43:56;95404.94;;;23.51;71.97
51333;BME280;37417;48.118;11.734;2023-06-19T07:46:42;95394.56;;;23.50;73.11
51333;BME280;37417;48.118;11.734;2023-06-19T07:49:27;95396.28;;;23.70;72.19
51333;BME280;37417;48.118;11.734;2023-06-19T07:52:13;95393.94;;;24.21;70.30
51333;BME280;37417;48.118;11.734;2023-06-19T07:54:59;95397.50;;;24.41;67.91
51333;BME280;37417;48.118;11.734;2023-06-19T07:57:45;95402.63;;;24.61;64.11
51333;BME280;37417;48.118;11.734;2023-06-19T08:00:31;95399.47;;;25.21;61.22
51333;BME280;37417;48.118;11.734;2023-06-19T08:03:16;95403.13;;;25.95;59.33
51333;BME280;37417;48.118;11.734;2023-06-19T08:06:02;95406.94;;;25.75;58.22
51333;BME280;37417;48.118;11.734;2023-06-19T08:08:48;95405.38;;;25.55;57.70
51333;BME280;37417;48.118;11.734;2023-06-19T08:11:33;95408.56;;;25.20;59.21
51333;BME280;37417;48.118;11.734;2023-06-19T08:14:19;95404.34;;;25.70;58.08
51333;BME280;37417;48.118;11.734;2023-06-19T08:17:05;95405.50;;;25.64;57.93
51333;BME280;37417;48.118;11.734;2023-06-19T08:19:51;95407.38;;;26.97;54.34
51333;BME280;37417;48.118;11.734;2023-06-19T08:22:36;95399.16;;;27.08;53.04
51333;BME280;37417;48.118;11.734;2023-06-19T08:25:22;95408.47;;;28.14;50.66
51333;BME280;37417;48.118;11.734;2023-06-19T08:28:08;95403.00;;;28.50;49.99
51333;BME280;37417;48.118;11.734;2023-06-19T08:30:54;95404.13;;;27.73;51.14
51333;BME280;37417;48.118;11.734;2023-06-19T08:33:40;95402.03;;;26.97;52.41
51333;BME280;37417;48.118;11.734;2023-06-19T08:36:25;95410.19;;;26.51;52.76
51333;BME280;37417;48.118;11.734;2023-06-19T08:39:11;95410.19;;;26.65;54.05
51333;BME280;37417;48.118;11.734;2023-06-19T08:41:57;95411.72;;;25.78;55.15
51333;BME280;37417;48.118;11.734;2023-06-19T08:44:42;95414.41;;;25.78;54.55
51333;BME280;37417;48.118;11.734;2023-06-19T08:47:29;95412.66;;;26.01;54.70
51333;BME280;37417;48.118;11.734;2023-06-19T08:50:16;95413.72;;;25.67;54.98
51333;BME280;37417;48.118;11.734;2023-06-19T08:53:02;95410.00;;;26.75;54.18
51333;BME280;37417;48.118;11.734;2023-06-19T08:55:47;95399.88;;;26.72;54.10
51333;BME280;37417;48.118;11.734;2023-06-19T08:58:33;95406.41;;;26.66;53.35
51333;BME280;37417;48.118;11.734;2023-06-19T09:01:19;95397.94;;;27.50;52.17
51333;BME280;37417;48.118;11.734;2023-06-19T09:04:12;95397.28;;;26.94;52.50
51333;BME280;37417;48.118;11.734;2023-06-19T09:07:00;95395.50;;;26.90;53.22
51333;BME280;37417;48.118;11.734;2023-06-19T09:09:46;95387.88;;;27.33;51.80
51333;BME280;37417;48.118;11.734;2023-06-19T09:12:32;95401.81;;;27.21;51.38
51333;BME280;37417;48.118;11.734;2023-06-19T09:15:19;95399.47;;;28.10;50.09
51333;BME280;37417;48.118;11.734;2023-06-19T09:18:09;95396.28;;;27.76;49.56
51333;BME280;37417;48.118;11.734;2023-06-19T09:20:55;95393.13;;;28.05;49.03
51333;BME280;37417;48.118;11.734;2023-06-19T09:23:41;95401.50;;;29.58;47.37
51333;BME280;37417;48.118;11.734;2023-06-19T09:26:26;95387.97;;;30.18;44.15
51333;BME280;37417;48.118;11.734;2023-06-19T09:29:16;95391.00;;;29.91;45.94
51333;BME280;37417;48.118;11.734;2023-06-19T09:32:15;95397.66;;;29.07;46.44
51333;BME280;37417;48.118;11.734;2023-06-19T09:35:01;95388.38;;;31.06;43.43
51333;BME280;37417;48.118;11.734;2023-06-19T09:37:48;95389.00;;;31.32;42.15
51333;BME280;37417;48.118;11.734;2023-06-19T09:40:34;95387.72;;;33.11;39.07
51333;BME280;37417;48.118;11.734;2023-06-19T09:43:26;95381.38;;;32.21;38.15
51333;BME280;37417;48.118;11.734;2023-06-19T09:46:16;95392.19;;;31.05;40.46
51333;BME280;37417;48.118;11.734;2023-06-19T09:49:03;95378.94;;;32.90;38.28
51333;BME280;37417;48.118;11.734;2023-06-19T09:51:51;95386.84;;;31.17;40.99
51333;BME280;37417;48.118;11.734;2023-06-19T09:54:37;95389.31;;;28.69;43.42
51333;BME280;37417;48.118;11.734;2023-06-19T09:57:24;95375.69;;;29.74;43.69
51333;BME280;37417;48.118;11.734;2023-06-19T10:00:11;95384.31;;;30.06;42.42
51333;BME280;37417;48.118;11.734;2023-06-19T10:02:58;95381.75;;;30.73;41.02
51333;BME280;37417;48.118;11.734;2023-06-19T10:05:45;95379.69;;;31.21;40.89
51333;BME280;37417;48.118;11.734;2023-06-19T10:08:42;95385.59;;;31.44;39.47
51333;BME280;37417;48.118;11.734;2023-06-19T10:11:44;95386.28;;;29.36;42.57
51333;BME280;37417;48.118;11.734;2023-06-19T10:14:29;95375.31;;;31.58;40.55
51333;BME280;37417;48.118;11.734;2023-06-19T10:17:18;95381.56;;;32.04;39.04
51333;BME280;37417;48.118;11.734;2023-06-19T10:20:04;95381.31;;;32.54;38.29
51333;BME280;37417;48.118;11.734;2023-06-19T10:25:59;95382.81;;;32.19;38.19
51333;BME280;37417;48.118;11.734;2023-06-19T10:28:46;95382.09;;;32.55;37.47
51333;BME280;37417;48.118;11.734;2023-06-19T10:31:33;95382.53;;;32.57;37.58
51333;BME280;37417;48.118;11.734;2023-06-19T10:34:19;95388.81;;;33.22;35.69
51333;BME280;37417;48.118;11.734;2023-06-19T10:37:04;95371.63;;;34.74;34.99
51333;BME280;37417;48.118;11.734;2023-06-19T10:39:50;95368.03;;;36.18;32.49
51333;BME280;37417;48.118;11.734;2023-06-19T10:42:36;95367.38;;;36.97;30.42
51333;BME280;37417;48.118;11.734;2023-06-19T10:45:22;95372.97;;;36.58;30.63
51333;BME280;37417;48.118;11.734;2023-06-19T10:48:22;95371.88;;;36.85;30.39
51333;BME280;37417;48.118;11.734;2023-06-19T10:51:08;95372.88;;;37.00;30.01
51333;BME280;37417;48.118;11.734;2023-06-19T10:53:55;95355.38;;;37.58;28.85
51333;BME280;37417;48.118;11.734;2023-06-19T10:56:41;95359.78;;;38.44;28.06
51333;BME280;37417;48.118;11.734;2023-06-19T10:59:28;95360.59;;;38.48;28.15
51333;BME280;37417;48.118;11.734;2023-06-19T11:02:18;95354.31;;;38.44;28.56
51333;BME280;37417;48.118;11.734;2023-06-19T11:05:04;95351.72;;;39.13;27.55
51333;BME280;37417;48.118;11.734;2023-06-19T11:07:59;95356.31;;;39.02;26.87
51333;BME280;37417;48.118;11.734;2023-06-19T11:10:45;95353.59;;;39.86;25.71
51333;BME280;37417;48.118;11.734;2023-06-19T11:13:31;95359.06;;;38.10;27.32
51333;BME280;37417;48.118;11.734;2023-06-19T11:16:17;95339.66;;;38.59;26.66
51333;BME280;37417;48.118;11.734;2023-06-19T11:19:03;95340.44;;;38.63;26.41
51333;BME280;37417;48.118;11.734;2023-06-19T11:21:50;95334.81;;;38.86;26.96
51333;BME280;37417;48.118;11.734;2023-06-19T11:24:37;95329.66;;;38.74;26.73
51333;BME280;37417;48.118;11.734;2023-06-19T11:27:23;95334.09;;;39.84;25.84
51333;BME280;37417;48.118;11.734;2023-06-19T11:30:12;95338.16;;;39.27;25.44
51333;BME280;37417;48.118;11.734;2023-06-19T11:32:59;95334.19;;;40.73;24.66
51333;BME280;37417;48.118;11.734;2023-06-19T11:35:49;95331.03;;;39.05;25.85
51333;BME280;37417;48.118;11.734;2023-06-19T11:38:35;95336.09;;;41.01;24.17
51333;BME280;37417;48.118;11.734;2023-06-19T11:41:26;95336.06;;;41.22;23.51
51333;BME280;37417;48.118;11.734;2023-06-19T11:44:12;95327.66;;;42.83;22.58
51333;BME280;37417;48.118;11.734;2023-06-19T11:46:58;95325.19;;;40.19;24.70
51333;BME280;37417;48.118;11.734;2023-06-19T11:49:47;95328.66;;;40.01;24.87
51333;BME280;37417;48.118;11.734;2023-06-19T11:52:33;95315.38;;;39.82;25.10
51333;BME280;37417;48.118;11.734;2023-06-19T11:55:18;95312.31;;;40.41;24.05
51333;BME280;37417;48.118;11.734;2023-06-19T11:58:04;95317.00;;;40.62;23.82
51333;BME280;37417;48.118;11.734;2023-06-19T12:00:50;95318.09;;;38.95;25.30
51333;BME280;37417;48.118;11.734;2023-06-19T12:03:35;95321.22;;;37.30;27.59
51333;BME280;37417;48.118;11.734;2023-06-19T12:06:21;95315.38;;;38.43;26.78
51333;BME280;37417;48.118;11.734;2023-06-19T12:09:07;95319.75;;;40.33;24.85
51333;BME280;37417;48.118;11.734;2023-06-19T12:11:53;95318.28;;;39.23;24.13
51333;BME280;37417;48.118;11.734;2023-06-19T12:14:38;95316.13;;;39.68;25.16
51333;BME280;37417;48.118;11.734;2023-06-19T12:17:25;95310.72;;;40.93;23.58
51333;BME280;37417;48.118;11.734;2023-06-19T12:20:12;95304.91;;;42.83;22.41
51333;BME280;37417;48.118;11.734;2023-06-19T12:22:59;95314.31;;;42.37;22.09
51333;BME280;37417;48.118;11.734;2023-06-19T12:25:44;95308.78;;;34.68;29.65
51333;BME280;37417;48.118;11.734;2023-06-19T12:28:30;95306.00;;;36.20;28.84
51333;BME280;37417;48.118;11.734;2023-06-19T12:31:16;95298.22;;;39.96;25.04
51333;BME280;37417;48.118;11.734;2023-06-19T12:34:02;95300.22;;;40.13;24.51
51333;BME280;37417;48.118;11.734;2023-06-19T12:36:48;95299.50;;;38.53;26.14
51333;BME280;37417;48.118;11.734;2023-06-19T12:39:34;95308.72;;;37.26;27.75
51333;BME280;37417;48.118;11.734;2023-06-19T12:42:20;95293.72;;;39.23;25.77
51333;BME280;37417;48.118;11.734;2023-06-19T12:45:06;95282.81;;;39.31;24.96
51333;BME280;37417;48.118;11.734;2023-06-19T12:47:52;95290.13;;;38.02;26.56
51333;BME280;37417;48.118;11.734;2023-06-19T12:50:37;95287.34;;;36.41;28.10
51333;BME280;37417;48.118;11.734;2023-06-19T12:53:23;95281.16;;;36.97;27.95
51333;BME280;37417;48.118;11.734;2023-06-19T12:56:12;95284.81;;;36.82;28.15
51333;BME280;37417;48.118;11.734;2023-06-19T12:58:57;95283.69;;;38.76;26.11
51333;BME280;37417;48.118;11.734;2023-06-19T13:01:43;95268.91;;;40.93;23.83
51333;BME280;37417;48.118;11.734;2023-06-19T13:04:28;95271.75;;;41.62;23.27
51333;BME280;37417;48.118;11.734;2023-06-19T13:07:14;95270.94;;;40.10;23.69
51333;BME280;37417;48.118;11.734;2023-06-19T13:10:01;95273.88;;;41.23;23.01
51333;BME280;37417;48.118;11.734;2023-06-19T13:12:46;95267.34;;;35.84;27.53
51333;BME280;37417;48.118;11.734;2023-06-19T13:15:32;95258.19;;;35.92;27.84
51333;BME280;37417;48.118;11.734;2023-06-19T13:18:20;95266.41;;;35.34;28.85
51333;BME280;37417;48.118;11.734;2023-06-19T13:21:06;95268.56;;;36.10;27.31
51333;BME280;37417;48.118;11.734;2023-06-19T13:23:52;95255.97;;;35.98;28.39
51333;BME280;37417;48.118;11.734;2023-06-19T13:26:37;95252.44;;;35.32;29.10
51333;BME280;37417;48.118;11.734;2023-06-19T13:29:23;95258.19;;;35.69;28.21
51333;BME280;37417;48.118;11.734;2023-06-19T13:32:09;95251.06;;;35.84;28.54
51333;BME280;37417;48.118;11.734;2023-06-19T13:34:55;95248.22;;;38.17;26.34
51333;BME280;37417;48.118;11.734;2023-06-19T13:37:41;95255.84;;;38.45;25.66
51333;BME280;37417;48.118;11.734;2023-06-19T13:40:27;95246.94;;;38.56;25.16
51333;BME280;37417;48.118;11.734;2023-06-19T13:43:13;95245.16;;;40.25;24.30
51333;BME280;37417;48.118;11.734;2023-06-19T13:45:58;95231.09;;;39.88;24.12
51333;BME280;37417;48.118;11.734;2023-06-19T13:48:44;95239.31;;;40.27;23.87
51333;BME280;37417;48.118;11.734;2023-06-19T13:51:30;95242.00;;;40.45;23.61
51333;BME280;37417;48.118;11.734;2023-06-19T13:54:15;95236.56;;;42.16;21.51
51333;BME280;37417;48.118;11.734;2023-06-19T13:57:01;95240.84;;;40.49;23.20
51333;BME280;37417;48.118;11.734;2023-06-19T13:59:47;95234.19;;;40.57;23.36
51333;BME280;37417;48.118;11.734;2023-06-19T14:02:34;95231.00;;;40.80;23.00
51333;BME280;37417;48.118;11.734;2023-06-19T14:05:20;95229.66;;;41.35;22.30
51333;BME280;37417;48.118;11.734;2023-06-19T14:08:06;95222.84;;;40.73;22.78
51333;BME280;37417;48.118;11.734;2023-06-19T14:10:51;95226.84;;;41.46;22.28
51333;BME280;37417;48.118;11.734;2023-06-19T14:13:37;95214.19;;;41.66;22.66
51333;BME280;37417;48.118;11.734;2023-06-19T14:16:23;95213.38;;;41.76;21.45
51333;BME280;37417;48.118;11.734;2023-06-19T14:19:08;95204.28;;;42.35;21.41
51333;BME280;37417;48.118;11.734;2023-06-19T14:21:54;95209.78;;;42.31;21.48
51333;BME280;37417;48.118;11.734;2023-06-19T14:24:39;95212.66;;;41.65;22.13
51333;BME280;37417;48.118;11.734;2023-06-19T14:27:26;95202.13;;;40.72;22.83
51333;BME280;37417;48.118;11.734;2023-06-19T14:30:12;95201.00;;;40.59;23.04
51333;BME280;37417;48.118;11.734;2023-06-19T14:32:57;95193.69;;;41.36;22.41